• Join FlightAware (Why Join?)
  • Login
  • US Flag 
04:41AM EST


 

Airport Tracker/Info


-or-


 

Live Flight TrackerFlight Track Log ✈ UAL4843 ✈ 14-Apr-2013 ✈ KEWR - KBWI

Flight Track Log - Related Links

Times and Time Zones

All times are in EDT time to prevent confusion due to time zone crossing. See the UAL4843 flight status page for this flight to view local times or setup timezone preferences in your user account.

Time Position Orientation Groundspeed Altitude Reporting Facility
EDT Latitude Longitude Course Direction KTS MPH feet Rate Location/Type
01:22PM 40.4097 -74.6499 232° Southwest  Level Estimated
01:23PM 40.3692 -74.7184 232° Southwest  Level Estimated
01:24PM 40.3286 -74.7867 232° Southwest  Level Estimated
01:25PM 40.2879 -74.8550 232° Southwest  Level Estimated
01:26PM 40.2473 -74.9231 232° Southwest  Level Estimated
01:27PM 40.2065 -74.9912 232° Southwest  Level Estimated
01:28PM 40.1658 -75.0593 232° Southwest  Level Estimated
01:29PM 40.1250 -75.1272 232° Southwest  Level Estimated
01:30PM 40.0841 -75.1950 232° Southwest  Level Estimated
01:31PM 40.0433 -75.2628 232° Southwest  Level Estimated
01:32PM 40.0024 -75.3305 232° Southwest  Level Estimated
01:33PM 39.9614 -75.3981 232° Southwest  Level Estimated
01:34PM 39.9204 -75.4656 232° Southwest  Level Estimated
01:35PM 39.8794 -75.5331 232° Southwest  Level Estimated
01:36PM 39.8383 -75.6004 232° Southwest  Level Estimated
01:37PM 39.7972 -75.6677 232° Southwest  Level Estimated
01:38PM 39.7561 -75.7349 231° Southwest  Level Estimated
01:39PM 39.7149 -75.8020 231° Southwest  Level Estimated
01:40PM 39.6736 -75.8691 231° Southwest  Level Estimated
01:41PM 39.6324 -75.9360 231° Southwest  Level Estimated
01:42PM 39.5911 -76.0029 231° Southwest  Level Estimated
01:43PM 39.5497 -76.0697 231° Southwest  Level Estimated
01:44PM 39.5084 -76.1364 231° Southwest  Level Estimated
01:45PM 39.4669 -76.2031 231° Southwest  Level Estimated
01:46PM 39.4255 -76.2697 231° Southwest  Level Estimated
01:47PM 39.3840 -76.3361 231° Southwest  Level Estimated
01:48PM 39.3425 -76.4025 231° Southwest  Level Estimated
01:49PM 39.3009 -76.4689 231° Southwest  Level Estimated
01:50PM 39.2593 -76.5351 231° Southwest  Level Estimated
01:51PM 39.2176 -76.6013 231° Southwest  Level Estimated
01:52PM 39.1760 -76.6674 231° Southwest  Level Estimated
01:53PM 39.1754 -76.6683 231° Southwest  Level Estimated
01:54PM 39.1754 -76.6683 293° West  Level Estimated
01:55PM 39.1754 -76.6683 293° West  Level Estimated
01:56PM 39.1754 -76.6683 293° West  Level Estimated
01:57PM 39.1754 -76.6683 293° West  Level Estimated
01:58PM 39.1754 -76.6683 293° West  Level Estimated
01:59PM 39.1754 -76.6683 293° West  Level Estimated
02:00PM 39.1754 -76.6683 293° West  Level Estimated
02:01PM 39.1754 -76.6683 293° West  Level Estimated
02:02PM 39.1754 -76.6683 293° West  Level Estimated
02:03PM 39.1754 -76.6683 293° West  Level Estimated
02:04PM 39.1754 -76.6683 293° West  Level Estimated
02:05PM 39.1754 -76.6683 293° West  Level Estimated
02:06PM 39.1754 -76.6683 293° West  Level Estimated
02:07PM 39.1754 -76.6683 293° West  Level Estimated
02:08PM 39.1754 -76.6683 293° West  Level Estimated